sensor_id;sensor_type;location;lat;lon;timestamp;temperature;humidity
23283;DHT22;11810;51.178;3.878;2023-05-14T00:02:15;12.10;99.90
23283;DHT22;11810;51.178;3.878;2023-05-14T00:04:41;12.00;99.90
23283;DHT22;11810;51.178;3.878;2023-05-14T00:07:07;12.10;99.90
23283;DHT22;11810;51.178;3.878;2023-05-14T00:09:33;12.10;99.90
23283;DHT22;11810;51.178;3.878;2023-05-14T00:12:00;12.10;99.90
23283;DHT22;11810;51.178;3.878;2023-05-14T00:14:26;12.10;99.90
23283;DHT22;11810;51.178;3.878;2023-05-14T00:16:52;12.10;99.90
23283;DHT22;11810;51.178;3.878;2023-05-14T00:19:18;12.20;99.90
23283;DHT22;11810;51.178;3.878;2023-05-14T00:21:44;12.20;99.90
23283;DHT22;11810;51.178;3.878;2023-05-14T00:24:10;12.30;99.90
23283;DHT22;11810;51.178;3.878;2023-05-14T00:26:36;12.20;99.90
23283;DHT22;11810;51.178;3.878;2023-05-14T00:29:02;12.10;99.90
23283;DHT22;11810;51.178;3.878;2023-05-14T00:31:27;12.20;99.90
23283;DHT22;11810;51.178;3.878;2023-05-14T00:33:53;12.20;99.90
23283;DHT22;11810;51.178;3.878;2023-05-14T00:36:19;12.10;99.90
23283;DHT22;11810;51.178;3.878;2023-05-14T00:38:45;12.00;99.90
23283;DHT22;11810;51.178;3.878;2023-05-14T00:41:11;12.10;99.90
23283;DHT22;11810;51.178;3.878;2023-05-14T00:43:37;12.10;99.90
23283;DHT22;11810;51.178;3.878;2023-05-14T00:46:03;12.30;99.90
23283;DHT22;11810;51.178;3.878;2023-05-14T00:48:30;12.10;99.90
23283;DHT22;11810;51.178;3.878;2023-05-14T00:50:56;12.00;99.90
23283;DHT22;11810;51.178;3.878;2023-05-14T00:53:22;12.00;99.90
23283;DHT22;11810;51.178;3.878;2023-05-14T00:55:49;12.10;99.90
23283;DHT22;11810;51.178;3.878;2023-05-14T00:58:15;12.00;99.90
23283;DHT22;11810;51.178;3.878;2023-05-14T01:00:42;12.00;99.90
23283;DHT22;11810;51.178;3.878;2023-05-14T01:03:08;12.00;99.90
23283;DHT22;11810;51.178;3.878;2023-05-14T01:06:13;12.10;99.90
23283;DHT22;11810;51.178;3.878;2023-05-14T01:09:16;12.10;99.90
23283;DHT22;11810;51.178;3.878;2023-05-14T01:12:07;12.10;99.90
23283;DHT22;11810;51.178;3.878;2023-05-14T01:17:11;12.20;99.90
23283;DHT22;11810;51.178;3.878;2023-05-14T01:19:42;12.40;99.90
23283;DHT22;11810;51.178;3.878;2023-05-14T01:22:11;12.40;99.90
23283;DHT22;11810;51.178;3.878;2023-05-14T01:24:37;12.50;99.90
23283;DHT22;11810;51.178;3.878;2023-05-14T01:27:12;12.60;99.90
23283;DHT22;11810;51.178;3.878;2023-05-14T01:29:44;12.60;99.90
23283;DHT22;11810;51.178;3.878;2023-05-14T01:32:12;12.40;99.90
23283;DHT22;11810;51.178;3.878;2023-05-14T01:34:39;12.40;99.90
23283;DHT22;11810;51.178;3.878;2023-05-14T01:37:05;12.60;99.90
23283;DHT22;11810;51.178;3.878;2023-05-14T01:39:34;12.60;99.90
23283;DHT22;11810;51.178;3.878;2023-05-14T01:43:24;12.70;99.90
23283;DHT22;11810;51.178;3.878;2023-05-14T01:45:50;12.70;99.90
23283;DHT22;11810;51.178;3.878;2023-05-14T01:48:16;12.60;99.90
23283;DHT22;11810;51.178;3.878;2023-05-14T01:50:42;12.70;99.90
23283;DHT22;11810;51.178;3.878;2023-05-14T01:53:08;12.70;99.90
23283;DHT22;11810;51.178;3.878;2023-05-14T01:55:34;12.70;99.90
23283;DHT22;11810;51.178;3.878;2023-05-14T01:58:00;12.70;99.90
23283;DHT22;11810;51.178;3.878;2023-05-14T02:00:26;12.60;99.90
23283;DHT22;11810;51.178;3.878;2023-05-14T02:02:52;12.40;99.90
23283;DHT22;11810;51.178;3.878;2023-05-14T02:05:18;12.40;99.90
23283;DHT22;11810;51.178;3.878;2023-05-14T02:07:44;12.50;99.90
23283;DHT22;11810;51.178;3.878;2023-05-14T02:10:10;12.50;99.90
23283;DHT22;11810;51.178;3.878;2023-05-14T02:12:36;12.40;99.90
23283;DHT22;11810;51.178;3.878;2023-05-14T02:15:03;12.30;99.90
23283;DHT22;11810;51.178;3.878;2023-05-14T02:17:29;12.30;99.90
23283;DHT22;11810;51.178;3.878;2023-05-14T02:19:55;12.10;99.90
23283;DHT22;11810;51.178;3.878;2023-05-14T02:22:21;12.20;99.90
23283;DHT22;11810;51.178;3.878;2023-05-14T02:24:47;12.10;99.90
23283;DHT22;11810;51.178;3.878;2023-05-14T02:27:14;12.00;99.90
23283;DHT22;11810;51.178;3.878;2023-05-14T02:29:40;12.00;99.90
23283;DHT22;11810;51.178;3.878;2023-05-14T02:32:06;11.90;99.90
23283;DHT22;11810;51.178;3.878;2023-05-14T02:34:32;11.80;99.90
23283;DHT22;11810;51.178;3.878;2023-05-14T02:36:59;11.80;99.90
23283;DHT22;11810;51.178;3.878;2023-05-14T02:39:25;11.80;99.90
23283;DHT22;11810;51.178;3.878;2023-05-14T02:41:51;11.80;99.90
23283;DHT22;11810;51.178;3.878;2023-05-14T02:44:17;11.80;99.90
23283;DHT22;11810;51.178;3.878;2023-05-14T02:46:43;11.90;99.90
23283;DHT22;11810;51.178;3.878;2023-05-14T02:49:09;12.10;99.90
23283;DHT22;11810;51.178;3.878;2023-05-14T02:51:35;11.90;99.90
23283;DHT22;11810;51.178;3.878;2023-05-14T02:54:01;11.90;99.90
23283;DHT22;11810;51.178;3.878;2023-05-14T02:56:27;11.80;99.90
23283;DHT22;11810;51.178;3.878;2023-05-14T02:58:52;11.90;99.90
23283;DHT22;11810;51.178;3.878;2023-05-14T03:01:18;11.70;99.90
23283;DHT22;11810;51.178;3.878;2023-05-14T03:03:44;11.70;99.90
23283;DHT22;11810;51.178;3.878;2023-05-14T03:06:10;11.80;99.90
23283;DHT22;11810;51.178;3.878;2023-05-14T03:08:36;11.90;99.90
23283;DHT22;11810;51.178;3.878;2023-05-14T03:11:02;12.00;99.90
23283;DHT22;11810;51.178;3.878;2023-05-14T03:13:28;12.00;99.90
23283;DHT22;11810;51.178;3.878;2023-05-14T03:15:54;12.00;99.90
23283;DHT22;11810;51.178;3.878;2023-05-14T03:18:21;12.00;99.90
23283;DHT22;11810;51.178;3.878;2023-05-14T03:20:47;12.20;99.90
23283;DHT22;11810;51.178;3.878;2023-05-14T03:23:13;12.10;99.90
23283;DHT22;11810;51.178;3.878;2023-05-14T03:25:40;12.00;99.90
23283;DHT22;11810;51.178;3.878;2023-05-14T03:28:06;12.20;99.90
23283;DHT22;11810;51.178;3.878;2023-05-14T03:30:32;12.40;99.90
23283;DHT22;11810;51.178;3.878;2023-05-14T03:32:58;12.20;99.90
23283;DHT22;11810;51.178;3.878;2023-05-14T03:35:24;12.20;99.90
23283;DHT22;11810;51.178;3.878;2023-05-14T03:37:50;12.10;99.90
23283;DHT22;11810;51.178;3.878;2023-05-14T03:40:17;12.20;99.90
23283;DHT22;11810;51.178;3.878;2023-05-14T03:42:43;12.10;99.90
23283;DHT22;11810;51.178;3.878;2023-05-14T03:45:09;12.30;99.90
23283;DHT22;11810;51.178;3.878;2023-05-14T03:47:35;12.30;99.90
23283;DHT22;11810;51.178;3.878;2023-05-14T03:50:01;12.20;99.90
23283;DHT22;11810;51.178;3.878;2023-05-14T03:52:27;12.30;99.90
23283;DHT22;11810;51.178;3.878;2023-05-14T03:54:53;12.20;99.90
23283;DHT22;11810;51.178;3.878;2023-05-14T03:57:19;12.30;99.90
23283;DHT22;11810;51.178;3.878;2023-05-14T03:59:45;12.50;99.90
23283;DHT22;11810;51.178;3.878;2023-05-14T04:02:11;12.50;99.90
23283;DHT22;11810;51.178;3.878;2023-05-14T04:04:37;12.60;99.90
23283;DHT22;11810;51.178;3.878;2023-05-14T04:07:03;12.80;99.90
23283;DHT22;11810;51.178;3.878;2023-05-14T04:09:29;12.80;99.90
23283;DHT22;11810;51.178;3.878;2023-05-14T04:11:55;12.90;99.90
23283;DHT22;11810;51.178;3.878;2023-05-14T04:14:21;12.90;99.90
23283;DHT22;11810;51.178;3.878;2023-05-14T04:16:47;12.80;99.90
23283;DHT22;11810;51.178;3.878;2023-05-14T04:19:13;12.80;99.90
23283;DHT22;11810;51.178;3.878;2023-05-14T04:21:38;13.00;99.90
23283;DHT22;11810;51.178;3.878;2023-05-14T04:24:05;13.00;99.90
23283;DHT22;11810;51.178;3.878;2023-05-14T04:26:31;13.10;99.90
23283;DHT22;11810;51.178;3.878;2023-05-14T04:28:57;13.00;99.90
23283;DHT22;11810;51.178;3.878;2023-05-14T04:31:27;13.00;99.90
23283;DHT22;11810;51.178;3.878;2023-05-14T04:33:53;13.00;99.90
23283;DHT22;11810;51.178;3.878;2023-05-14T04:36:19;13.00;99.90
23283;DHT22;11810;51.178;3.878;2023-05-14T04:38:45;13.10;99.90
23283;DHT22;11810;51.178;3.878;2023-05-14T04:41:11;13.20;99.90
23283;DHT22;11810;51.178;3.878;2023-05-14T04:43:38;13.10;99.90
23283;DHT22;11810;51.178;3.878;2023-05-14T04:46:04;13.10;99.90
23283;DHT22;11810;51.178;3.878;2023-05-14T04:48:30;13.10;99.90
23283;DHT22;11810;51.178;3.878;2023-05-14T04:50:56;13.20;99.90
23283;DHT22;11810;51.178;3.878;2023-05-14T04:53:22;13.20;99.90
23283;DHT22;11810;51.178;3.878;2023-05-14T04:55:48;13.30;99.90
23283;DHT22;11810;51.178;3.878;2023-05-14T04:58:14;13.40;99.90
23283;DHT22;11810;51.178;3.878;2023-05-14T05:00:40;13.20;99.90
23283;DHT22;11810;51.178;3.878;2023-05-14T05:03:06;13.20;99.90
23283;DHT22;11810;51.178;3.878;2023-05-14T05:05:33;13.20;99.90
23283;DHT22;11810;51.178;3.878;2023-05-14T05:08:00;13.30;99.90
23283;DHT22;11810;51.178;3.878;2023-05-14T05:10:25;13.40;99.90
23283;DHT22;11810;51.178;3.878;2023-05-14T05:12:52;13.40;99.90
23283;DHT22;11810;51.178;3.878;2023-05-14T05:15:18;13.40;99.90
23283;DHT22;11810;51.178;3.878;2023-05-14T05:17:44;13.60;99.90
23283;DHT22;11810;51.178;3.878;2023-05-14T05:20:10;13.50;99.90
23283;DHT22;11810;51.178;3.878;2023-05-14T05:22:36;13.60;99.90
23283;DHT22;11810;51.178;3.878;2023-05-14T05:25:03;13.70;99.90
23283;DHT22;11810;51.178;3.878;2023-05-14T05:27:32;13.70;99.90
23283;DHT22;11810;51.178;3.878;2023-05-14T05:30:00;13.60;99.90
23283;DHT22;11810;51.178;3.878;2023-05-14T05:32:26;13.60;99.90
23283;DHT22;11810;51.178;3.878;2023-05-14T05:34:52;13.80;99.90
23283;DHT22;11810;51.178;3.878;2023-05-14T05:37:18;13.80;99.90
23283;DHT22;11810;51.178;3.878;2023-05-14T05:39:44;13.90;99.90
23283;DHT22;11810;51.178;3.878;2023-05-14T05:42:10;13.70;99.90
23283;DHT22;11810;51.178;3.878;2023-05-14T05:44:36;13.60;99.90
23283;DHT22;11810;51.178;3.878;2023-05-14T05:47:02;13.80;99.90
23283;DHT22;11810;51.178;3.878;2023-05-14T05:49:28;13.80;99.90
23283;DHT22;11810;51.178;3.878;2023-05-14T05:51:54;13.90;99.90
23283;DHT22;11810;51.178;3.878;2023-05-14T05:54:21;14.10;99.90
23283;DHT22;11810;51.178;3.878;2023-05-14T05:56:47;14.20;99.90
23283;DHT22;11810;51.178;3.878;2023-05-14T05:59:13;14.10;99.90
23283;DHT22;11810;51.178;3.878;2023-05-14T06:01:39;14.30;99.90
23283;DHT22;11810;51.178;3.878;2023-05-14T06:04:08;14.20;99.90
23283;DHT22;11810;51.178;3.878;2023-05-14T06:06:34;14.20;99.90
23283;DHT22;11810;51.178;3.878;2023-05-14T06:09:00;14.10;99.90
23283;DHT22;11810;51.178;3.878;2023-05-14T06:11:26;14.20;99.90
23283;DHT22;11810;51.178;3.878;2023-05-14T06:13:53;14.30;99.90
23283;DHT22;11810;51.178;3.878;2023-05-14T06:16:19;14.20;99.90
23283;DHT22;11810;51.178;3.878;2023-05-14T06:18:45;14.10;99.90
23283;DHT22;11810;51.178;3.878;2023-05-14T06:21:11;14.00;99.90
23283;DHT22;11810;51.178;3.878;2023-05-14T06:23:37;14.10;99.90
23283;DHT22;11810;51.178;3.878;2023-05-14T06:26:03;14.00;99.90
23283;DHT22;11810;51.178;3.878;2023-05-14T06:28:29;14.10;99.90
23283;DHT22;11810;51.178;3.878;2023-05-14T06:30:55;14.10;99.90
23283;DHT22;11810;51.178;3.878;2023-05-14T06:33:21;14.10;99.90
23283;DHT22;11810;51.178;3.878;2023-05-14T06:35:54;14.10;99.90
23283;DHT22;11810;51.178;3.878;2023-05-14T06:38:20;13.90;99.90
23283;DHT22;11810;51.178;3.878;2023-05-14T06:40:46;13.90;99.90
23283;DHT22;11810;51.178;3.878;2023-05-14T06:43:12;14.00;99.90
23283;DHT22;11810;51.178;3.878;2023-05-14T06:45:38;14.10;99.90
23283;DHT22;11810;51.178;3.878;2023-05-14T06:48:04;14.30;99.90
23283;DHT22;11810;51.178;3.878;2023-05-14T06:50:30;14.20;99.90
23283;DHT22;11810;51.178;3.878;2023-05-14T06:52:56;14.20;99.90
23283;DHT22;11810;51.178;3.878;2023-05-14T06:55:22;14.10;99.90
23283;DHT22;11810;51.178;3.878;2023-05-14T06:57:48;14.10;99.90
23283;DHT22;11810;51.178;3.878;2023-05-14T07:00:15;14.30;99.90
23283;DHT22;11810;51.178;3.878;2023-05-14T07:02:41;14.20;99.90
23283;DHT22;11810;51.178;3.878;2023-05-14T07:05:09;14.40;99.90
23283;DHT22;11810;51.178;3.878;2023-05-14T07:07:35;14.40;99.90
23283;DHT22;11810;51.178;3.878;2023-05-14T07:10:01;14.30;99.90
23283;DHT22;11810;51.178;3.878;2023-05-14T07:12:27;14.50;99.90
23283;DHT22;11810;51.178;3.878;2023-05-14T07:14:53;14.40;99.90
23283;DHT22;11810;51.178;3.878;2023-05-14T07:17:21;14.40;99.90
23283;DHT22;11810;51.178;3.878;2023-05-14T07:19:47;14.30;99.90
23283;DHT22;11810;51.178;3.878;2023-05-14T07:22:13;14.30;99.90
23283;DHT22;11810;51.178;3.878;2023-05-14T07:24:39;14.40;99.90
23283;DHT22;11810;51.178;3.878;2023-05-14T07:27:05;14.50;99.90
23283;DHT22;11810;51.178;3.878;2023-05-14T07:29:31;14.50;99.90
23283;DHT22;11810;51.178;3.878;2023-05-14T07:32:00;14.70;99.90
23283;DHT22;11810;51.178;3.878;2023-05-14T07:34:26;14.50;99.90
23283;DHT22;11810;51.178;3.878;2023-05-14T07:36:52;14.50;99.90
23283;DHT22;11810;51.178;3.878;2023-05-14T07:39:18;14.70;99.90
23283;DHT22;11810;51.178;3.878;2023-05-14T07:41:44;14.60;99.90
23283;DHT22;11810;51.178;3.878;2023-05-14T07:44:10;14.60;99.90
23283;DHT22;11810;51.178;3.878;2023-05-14T07:46:36;14.40;99.90
23283;DHT22;11810;51.178;3.878;2023-05-14T07:49:02;14.30;99.90
23283;DHT22;11810;51.178;3.878;2023-05-14T07:51:28;14.50;99.90
23283;DHT22;11810;51.178;3.878;2023-05-14T07:53:54;14.40;99.90
23283;DHT22;11810;51.178;3.878;2023-05-14T07:56:21;14.60;99.90
23283;DHT22;11810;51.178;3.878;2023-05-14T07:58:47;14.70;99.90
23283;DHT22;11810;51.178;3.878;2023-05-14T08:01:13;14.80;99.90
23283;DHT22;11810;51.178;3.878;2023-05-14T08:03:39;14.90;99.90
23283;DHT22;11810;51.178;3.878;2023-05-14T08:06:05;14.70;99.90
23283;DHT22;11810;51.178;3.878;2023-05-14T08:08:31;14.90;99.90
23283;DHT22;11810;51.178;3.878;2023-05-14T08:10:57;14.70;99.90
23283;DHT22;11810;51.178;3.878;2023-05-14T08:13:23;15.00;99.90
23283;DHT22;11810;51.178;3.878;2023-05-14T08:15:49;15.20;99.90
23283;DHT22;11810;51.178;3.878;2023-05-14T08:18:15;15.10;99.90
23283;DHT22;11810;51.178;3.878;2023-05-14T08:20:41;15.10;99.90
23283;DHT22;11810;51.178;3.878;2023-05-14T08:23:07;15.10;99.90
23283;DHT22;11810;51.178;3.878;2023-05-14T08:25:33;15.20;99.90
23283;DHT22;11810;51.178;3.878;2023-05-14T08:28:00;15.40;99.90
23283;DHT22;11810;51.178;3.878;2023-05-14T08:30:26;15.60;99.90
23283;DHT22;11810;51.178;3.878;2023-05-14T08:32:52;15.80;99.90
23283;DHT22;11810;51.178;3.878;2023-05-14T08:35:18;16.00;99.90
23283;DHT22;11810;51.178;3.878;2023-05-14T08:37:45;15.90;99.90
23283;DHT22;11810;51.178;3.878;2023-05-14T08:40:11;15.90;99.90
23283;DHT22;11810;51.178;3.878;2023-05-14T08:42:38;15.90;99.90
23283;DHT22;11810;51.178;3.878;2023-05-14T08:45:18;15.90;99.90
23283;DHT22;11810;51.178;3.878;2023-05-14T08:47:48;16.30;99.90
23283;DHT22;11810;51.178;3.878;2023-05-14T08:50:15;16.30;99.90
23283;DHT22;11810;51.178;3.878;2023-05-14T08:52:41;16.40;99.90
23283;DHT22;11810;51.178;3.878;2023-05-14T08:55:09;17.00;99.90
23283;DHT22;11810;51.178;3.878;2023-05-14T08:57:36;17.10;99.90
23283;DHT22;11810;51.178;3.878;2023-05-14T09:00:03;17.30;99.90
23283;DHT22;11810;51.178;3.878;2023-05-14T09:02:33;17.80;99.90
23283;DHT22;11810;51.178;3.878;2023-05-14T09:05:01;18.10;99.90
23283;DHT22;11810;51.178;3.878;2023-05-14T09:07:28;18.20;99.90
23283;DHT22;11810;51.178;3.878;2023-05-14T09:09:54;19.20;99.90
23283;DHT22;11810;51.178;3.878;2023-05-14T09:12:21;20.20;99.90
23283;DHT22;11810;51.178;3.878;2023-05-14T09:14:48;20.80;99.90
23283;DHT22;11810;51.178;3.878;2023-05-14T09:17:14;21.00;99.90
23283;DHT22;11810;51.178;3.878;2023-05-14T09:19:42;20.30;99.90
23283;DHT22;11810;51.178;3.878;2023-05-14T09:22:11;19.50;99.90
23283;DHT22;11810;51.178;3.878;2023-05-14T09:24:37;19.20;99.90
23283;DHT22;11810;51.178;3.878;2023-05-14T09:27:04;19.30;99.90
23283;DHT22;11810;51.178;3.878;2023-05-14T09:29:31;19.20;99.90
23283;DHT22;11810;51.178;3.878;2023-05-14T09:31:58;19.20;99.90
23283;DHT22;11810;51.178;3.878;2023-05-14T09:34:26;19.30;99.90
23283;DHT22;11810;51.178;3.878;2023-05-14T09:37:10;19.70;99.90
23283;DHT22;11810;51.178;3.878;2023-05-14T09:39:37;20.20;99.90
23283;DHT22;11810;51.178;3.878;2023-05-14T09:42:04;20.30;99.90
23283;DHT22;11810;51.178;3.878;2023-05-14T09:44:30;20.60;99.90
23283;DHT22;11810;51.178;3.878;2023-05-14T09:46:56;20.90;99.90
23283;DHT22;11810;51.178;3.878;2023-05-14T09:49:22;21.10;99.90
23283;DHT22;11810;51.178;3.878;2023-05-14T09:51:49;20.90;99.90
23283;DHT22;11810;51.178;3.878;2023-05-14T09:54:15;20.60;99.90
23283;DHT22;11810;51.178;3.878;2023-05-14T09:56:42;21.30;99.90
23283;DHT22;11810;51.178;3.878;2023-05-14T09:59:08;21.80;99.90
23283;DHT22;11810;51.178;3.878;2023-05-14T10:01:35;21.40;99.90
23283;DHT22;11810;51.178;3.878;2023-05-14T10:04:06;21.20;99.90
23283;DHT22;11810;51.178;3.878;2023-05-14T10:06:36;21.90;99.90
23283;DHT22;11810;51.178;3.878;2023-05-14T10:09:04;22.00;99.90
23283;DHT22;11810;51.178;3.878;2023-05-14T10:11:33;22.40;99.90
23283;DHT22;11810;51.178;3.878;2023-05-14T10:14:10;22.70;99.90
23283;DHT22;11810;51.178;3.878;2023-05-14T10:16:46;22.60;99.90
23283;DHT22;11810;51.178;3.878;2023-05-14T10:19:15;23.20;99.90
23283;DHT22;11810;51.178;3.878;2023-05-14T10:21:46;24.00;99.90
23283;DHT22;11810;51.178;3.878;2023-05-14T10:24:14;24.60;99.90
23283;DHT22;11810;51.178;3.878;2023-05-14T10:26:40;25.10;99.90
23283;DHT22;11810;51.178;3.878;2023-05-14T10:29:08;26.10;99.90
23283;DHT22;11810;51.178;3.878;2023-05-14T10:31:54;26.00;99.90
23283;DHT22;11810;51.178;3.878;2023-05-14T10:34:36;26.30;99.90
23283;DHT22;11810;51.178;3.878;2023-05-14T10:37:03;26.50;99.90
23283;DHT22;11810;51.178;3.878;2023-05-14T10:39:43;26.60;99.90
23283;DHT22;11810;51.178;3.878;2023-05-14T10:42:17;26.80;99.90
23283;DHT22;11810;51.178;3.878;2023-05-14T10:44:52;26.70;99.90
23283;DHT22;11810;51.178;3.878;2023-05-14T10:47:19;26.70;99.90
23283;DHT22;11810;51.178;3.878;2023-05-14T10:49:46;26.90;99.90
23283;DHT22;11810;51.178;3.878;2023-05-14T10:52:16;27.10;99.90
23283;DHT22;11810;51.178;3.878;2023-05-14T10:54:56;27.20;99.90
23283;DHT22;11810;51.178;3.878;2023-05-14T10:57:27;27.10;99.90
23283;DHT22;11810;51.178;3.878;2023-05-14T10:59:55;27.20;99.90
23283;DHT22;11810;51.178;3.878;2023-05-14T11:02:28;27.60;99.90
23283;DHT22;11810;51.178;3.878;2023-05-14T11:07:38;27.90;99.90
23283;DHT22;11810;51.178;3.878;2023-05-14T11:10:06;28.30;99.90
23283;DHT22;11810;51.178;3.878;2023-05-14T11:12:39;28.90;99.90
23283;DHT22;11810;51.178;3.878;2023-05-14T11:15:31;28.10;99.90
23283;DHT22;11810;51.178;3.878;2023-05-14T11:17:57;28.00;99.90
23283;DHT22;11810;51.178;3.878;2023-05-14T11:20:23;28.30;99.90
23283;DHT22;11810;51.178;3.878;2023-05-14T11:22:49;28.50;99.90
23283;DHT22;11810;51.178;3.878;2023-05-14T11:25:18;28.50;99.90
23283;DHT22;11810;51.178;3.878;2023-05-14T11:27:45;28.10;99.90
23283;DHT22;11810;51.178;3.878;2023-05-14T11:30:19;27.60;99.90
23283;DHT22;11810;51.178;3.878;2023-05-14T11:32:46;27.50;99.90
23283;DHT22;11810;51.178;3.878;2023-05-14T11:35:13;26.90;99.90
23283;DHT22;11810;51.178;3.878;2023-05-14T11:37:40;27.50;99.90
23283;DHT22;11810;51.178;3.878;2023-05-14T11:40:08;27.60;99.90
23283;DHT22;11810;51.178;3.878;2023-05-14T11:42:35;28.10;99.90
23283;DHT22;11810;51.178;3.878;2023-05-14T11:45:02;28.20;99.90
23283;DHT22;11810;51.178;3.878;2023-05-14T11:47:28;28.60;99.90
23283;DHT22;11810;51.178;3.878;2023-05-14T11:49:55;28.60;99.90
23283;DHT22;11810;51.178;3.878;2023-05-14T11:52:21;28.50;99.90
23283;DHT22;11810;51.178;3.878;2023-05-14T11:54:47;28.70;99.90
23283;DHT22;11810;51.178;3.878;2023-05-14T11:57:20;28.20;99.90
23283;DHT22;11810;51.178;3.878;2023-05-14T11:59:48;28.40;99.90
23283;DHT22;11810;51.178;3.878;2023-05-14T12:02:16;28.10;99.90
23283;DHT22;11810;51.178;3.878;2023-05-14T12:04:43;27.90;99.90
23283;DHT22;11810;51.178;3.878;2023-05-14T12:07:11;28.30;99.90
23283;DHT22;11810;51.178;3.878;2023-05-14T12:09:46;28.30;99.90
23283;DHT22;11810;51.178;3.878;2023-05-14T12:12:18;28.80;99.90
23283;DHT22;11810;51.178;3.878;2023-05-14T12:14:44;29.00;99.90
23283;DHT22;11810;51.178;3.878;2023-05-14T12:17:21;28.40;99.90
23283;DHT22;11810;51.178;3.878;2023-05-14T12:19:50;28.50;99.90
23283;DHT22;11810;51.178;3.878;2023-05-14T12:22:19;27.70;99.90
23283;DHT22;11810;51.178;3.878;2023-05-14T12:24:56;28.10;99.90
23283;DHT22;11810;51.178;3.878;2023-05-14T12:27:23;28.80;99.90
23283;DHT22;11810;51.178;3.878;2023-05-14T12:32:27;28.90;99.90
23283;DHT22;11810;51.178;3.878;2023-05-14T12:34:52;28.90;99.90
23283;DHT22;11810;51.178;3.878;2023-05-14T12:37:18;28.40;99.90
23283;DHT22;11810;51.178;3.878;2023-05-14T12:39:44;28.20;99.90
23283;DHT22;11810;51.178;3.878;2023-05-14T12:42:10;28.40;99.90
23283;DHT22;11810;51.178;3.878;2023-05-14T12:44:36;28.60;99.90
23283;DHT22;11810;51.178;3.878;2023-05-14T12:47:02;28.00;99.90
23283;DHT22;11810;51.178;3.878;2023-05-14T12:49:28;28.40;99.90
23283;DHT22;11810;51.178;3.878;2023-05-14T12:51:54;28.60;99.90
23283;DHT22;11810;51.178;3.878;2023-05-14T12:54:20;27.90;99.90
23283;DHT22;11810;51.178;3.878;2023-05-14T12:56:46;27.80;99.90
23283;DHT22;11810;51.178;3.878;2023-05-14T12:59:12;27.70;99.90
23283;DHT22;11810;51.178;3.878;2023-05-14T13:01:38;27.90;99.90
23283;DHT22;11810;51.178;3.878;2023-05-14T13:04:04;27.40;99.90
23283;DHT22;11810;51.178;3.878;2023-05-14T13:06:31;27.10;99.90
23283;DHT22;11810;51.178;3.878;2023-05-14T13:08:57;27.20;99.90
23283;DHT22;11810;51.178;3.878;2023-05-14T13:11:24;27.30;99.90
23283;DHT22;11810;51.178;3.878;2023-05-14T13:13:54;27.30;99.90
23283;DHT22;11810;51.178;3.878;2023-05-14T13:16:20;26.80;99.90
23283;DHT22;11810;51.178;3.878;2023-05-14T13:18:46;26.80;99.90
23283;DHT22;11810;51.178;3.878;2023-05-14T13:21:12;26.80;99.90
23283;DHT22;11810;51.178;3.878;2023-05-14T13:23:38;27.00;99.90
23283;DHT22;11810;51.178;3.878;2023-05-14T13:26:04;27.20;99.90
23283;DHT22;11810;51.178;3.878;2023-05-14T13:28:30;26.90;99.90
23283;DHT22;11810;51.178;3.878;2023-05-14T13:33:37;26.50;99.90
23283;DHT22;11810;51.178;3.878;2023-05-14T13:36:03;26.30;99.90
23283;DHT22;11810;51.178;3.878;2023-05-14T13:38:29;25.60;99.90
23283;DHT22;11810;51.178;3.878;2023-05-14T13:40:55;25.50;99.90
23283;DHT22;11810;51.178;3.878;2023-05-14T13:43:34;25.50;99.90
23283;DHT22;11810;51.178;3.878;2023-05-14T13:46:01;25.20;99.90
23283;DHT22;11810;51.178;3.878;2023-05-14T13:48:27;24.90;99.90
23283;DHT22;11810;51.178;3.878;2023-05-14T13:50:53;24.00;99.90
23283;DHT22;11810;51.178;3.878;2023-05-14T13:53:20;23.90;99.90
23283;DHT22;11810;51.178;3.878;2023-05-14T13:55:46;23.60;99.90
23283;DHT22;11810;51.178;3.878;2023-05-14T13:58:12;23.30;99.90
23283;DHT22;11810;51.178;3.878;2023-05-14T14:00:39;23.20;99.90
23283;DHT22;11810;51.178;3.878;2023-05-14T14:03:06;22.80;99.90
23283;DHT22;11810;51.178;3.878;2023-05-14T14:05:35;22.80;99.90
23283;DHT22;11810;51.178;3.878;2023-05-14T14:08:01;22.50;99.90
23283;DHT22;11810;51.178;3.878;2023-05-14T14:10:27;22.70;99.90
23283;DHT22;11810;51.178;3.878;2023-05-14T14:12:54;22.60;99.90
23283;DHT22;11810;51.178;3.878;2023-05-14T14:15:20;22.30;99.90
23283;DHT22;11810;51.178;3.878;2023-05-14T14:17:46;22.20;99.90
23283;DHT22;11810;51.178;3.878;2023-05-14T14:20:13;22.10;99.90
23283;DHT22;11810;51.178;3.878;2023-05-14T14:22:41;22.10;99.90
23283;DHT22;11810;51.178;3.878;2023-05-14T14:25:07;22.00;99.90
23283;DHT22;11810;51.178;3.878;2023-05-14T14:27:34;21.60;99.90
23283;DHT22;11810;51.178;3.878;2023-05-14T14:30:07;21.40;99.90
23283;DHT22;11810;51.178;3.878;2023-05-14T14:32:43;21.40;99.90
23283;DHT22;11810;51.178;3.878;2023-05-14T14:35:10;21.20;99.90
23283;DHT22;11810;51.178;3.878;2023-05-14T14:37:36;21.20;99.90
23283;DHT22;11810;51.178;3.878;2023-05-14T14:40:03;21.20;99.90
23283;DHT22;11810;51.178;3.878;2023-05-14T14:42:33;21.30;99.90
23283;DHT22;11810;51.178;3.878;2023-05-14T14:44:59;21.10;99.90
23283;DHT22;11810;51.178;3.878;2023-05-14T14:47:25;21.00;99.90
23283;DHT22;11810;51.178;3.878;2023-05-14T14:49:51;21.50;99.90
23283;DHT22;11810;51.178;3.878;2023-05-14T14:52:17;21.30;99.90
23283;DHT22;11810;51.178;3.878;2023-05-14T14:54:43;20.80;99.90
23283;DHT22;11810;51.178;3.878;2023-05-14T14:57:09;20.80;99.90
23283;DHT22;11810;51.178;3.878;2023-05-14T14:59:35;21.00;99.90
23283;DHT22;11810;51.178;3.878;2023-05-14T15:02:01;21.10;99.90
23283;DHT22;11810;51.178;3.878;2023-05-14T15:04:27;21.00;99.90
23283;DHT22;11810;51.178;3.878;2023-05-14T15:06:57;21.00;99.90
23283;DHT22;11810;51.178;3.878;2023-05-14T15:09:23;21.00;99.90
23283;DHT22;11810;51.178;3.878;2023-05-14T15:11:49;20.80;99.90
23283;DHT22;11810;51.178;3.878;2023-05-14T15:14:15;20.60;99.90
23283;DHT22;11810;51.178;3.878;2023-05-14T15:16:41;20.70;99.90
23283;DHT22;11810;51.178;3.878;2023-05-14T15:19:07;20.70;99.90
23283;DHT22;11810;51.178;3.878;2023-05-14T15:21:33;20.40;99.90
23283;DHT22;11810;51.178;3.878;2023-05-14T15:23:59;20.10;99.90
23283;DHT22;11810;51.178;3.878;2023-05-14T15:26:25;19.90;99.90
23283;DHT22;11810;51.178;3.878;2023-05-14T15:28:51;19.80;99.90
23283;DHT22;11810;51.178;3.878;2023-05-14T15:31:17;19.50;99.90
23283;DHT22;11810;51.178;3.878;2023-05-14T15:33:43;19.50;99.90
23283;DHT22;11810;51.178;3.878;2023-05-14T15:36:09;19.70;99.90
23283;DHT22;11810;51.178;3.878;2023-05-14T15:38:35;19.70;99.90
23283;DHT22;11810;51.178;3.878;2023-05-14T15:41:01;19.60;99.90
23283;DHT22;11810;51.178;3.878;2023-05-14T15:43:27;19.80;99.90